CLT TRACON Summary / KCLT TAF
CLT TRACON Summary:
An upper-level disturbance will support isolated convection over the mountains and to the east of CLT this afternoon. Steering flow should keep the activity to the west from impacting CLT. Cells will move south-southwest at 5-10kts. Expect VFR conditions under a FEW-SCT060TCU deck after 17z. Surface winds will be southwest at 5-7kts. Flight hazards in the TRACON airspace outside convection: None expected.

Updated: 7/23/2016 12:30 PM
CLT Terminal Aerodrome Forecast:

FTUS80 KCLT 231736 RRA
KCLT 231733Z 2318/2418 20005KT P6SM VCSH SCT050
     FM232300 19003KT P6SM FEW060 SCT250
     FM240300 17002KT P6SM FEW250
     FM241500 19004KT P6SM FEW050
CLT TRACON Area Remark:
ISOLATED TS POSSIBLE E/SE/SE/S FROM 19-00Z.
Convective Gate Forecast / Collaborative Convective Forecast Product / Vertical Wind Profile
Convective Gate Forecast
-->
AIRMETs & SIGMETS/ Southeast Radar loop / Satellite Image (click on image to enlarge)

Southeast Radar Loop

 



USA.gov is the U.S. government's official web portal to all federal, state and local government web resources and services.